METAR Data
IDs: Format: Raw Decoded Include TAF

Data at: 1535 UTC 21 Sep 2018

KDSM 211454Z 31022G29KT 10SM FEW025 BKN250 BKN300 15/10 A3008 RMK AO2 PK WND 30034/1434 SLP182 T01500100 51033
KDSM 211354Z 31016G28KT 10SM FEW021 BKN250 OVC300 14/11 A3006 RMK AO2 PK WND 30030/1300 SLP173 T01440106
KDSM 211254Z 31018G28KT 10SM SCT018 OVC250 14/12 A3003 RMK AO2 PK WND 28028/1246 SLP162 T01440117
KDSM 211154Z 29014G23KT 10SM FEW015 OVC250 15/13 A2998 RMK AO2 PK WND 29026/1112 SLP147 60003 70037 T01500128 10200 20150 53037
KDSM 211054Z 30012KT 10SM SCT015 OVC250 16/14 A2994 RMK AO2 SLP130 T01560139
KDSM 210954Z 30016G25KT 10SM FEW014 FEW017 SCT032 OVC230 16/14 A2990 RMK AO2 PK WND 29027/0937 SLP118 T01610139
KDSM 210929Z 31016KT 10SM BKN014 BKN032 17/16 A2989 RMK AO2 T01720156
KDSM 210854Z 29014KT 10SM FEW015 SCT020 BKN034 17/16 A2987 RMK AO2 PK WND 31029/0759 SLP107 60003 T01720161 53020
KDSM 210754Z 29016G25KT 10SM SCT008 BKN015 OVC100 19/19 A2984 RMK AO2 RAE07 SLP095 P0000 T01940189
KDSM 210654Z 23009KT 10SM -RA FEW009 FEW035 BKN110 OVC130 20/19 A2982 RMK AO2 SLP088 P0003 T02000194
KDSM 210554Z 21007KT 10SM -RA FEW007 FEW035 BKN100 OVC130 19/19 A2981 RMK AO2 SLP087 P0005 60034 T01940194 10300 20194 403280194 51030
KDSM 210454Z 27005KT 5SM -RA BR FEW050 SCT075 OVC090 19/19 A2981 RMK AO2 TSE13 SLP085 TS MOV E P0011 T01940189
KDSM 210414Z 29009KT 10SM -RA SCT037 BKN075 OVC090 20/19 A2981 RMK AO2 TSE13 OCNL LTGICCG DSNT NE-SE TS MOV E CB DSNT NE-SE MOV E P0003 T02000194
KDSM 210354Z 30019G30KT 4SM TSRA BR FEW014 BKN031 OVC047CB 20/19 A2981 RMK AO2 PK WND 30036/0342 WSHFT 0247 LTG DSNT S AND SW RAB33 TSB10 SLP088 FRQ LTGICCG OHD-NW-S TS OHD-NW-S MOV E P0018 T02000189
KDSM 210343Z 30026G36KT 2 1/2SM +TSRA FEW035 BKN048CB OVC055 21/18 A2981 RMK AO2 PK WND 30036/0342 WSHFT 0247 LTG DSNT SW AND NW RAB33 TSB10 PRESRR OCNL LTGICCG OHD-S-N TS OHD-S-N MOV E P0000 T02110183
KDSM 210312Z 30021G31KT 10SM TS FEW007 FEW027 BKN045CB OVC250 24/19 A2975 RMK AO2 PK WND 30031/0312 WSHFT 0247 LTG DSNT W-N TSB10 OCNL LTGICCG VC NW-N AND DSNT SW TS VC NW-N MOV E CB DSNT SW-W MOV E T02390189
KDSM 210307Z 32012G29KT 10SM FEW007 FEW027 BKN060 BKN250 24/19 A2974 RMK AO2 PK WND 32029/0301 WSHFT 0247 LTG DSNT W-N OCNL LTGICCG DSNT N AND SW AND NW CB DSNT SW-NE MOV E T02440189
KDSM 210254Z 22014G24KT 10SM FEW016 FEW065 SCT090 BKN250 28/19 A2972 RMK AO2 PK WND 22029/0237 LTG DSNT NW SLP054 OCNL LTGIC DSNT SW AND NW CB DSNT SW-NE MOV E T02830194 53027
KDSM 210154Z 21015G24KT 10SM FEW070 FEW140 SCT250 28/19 A2968 RMK AO2 SLP043 CONS LTGICCC DSNT W-NW OCNL LTGIC DSNT N CB DSNT W-N MOV E T02830194
KDSM 210054Z 20017G25KT 10SM FEW065 FEW250 29/19 A2965 RMK AO2 PK WND 19028/0043 SLP033 FRQ LTGICCC DSNT W-NW CB DSNT W-NW MOV E TCU DSNT W-N T02940189
KDSM 202354Z 20017G26KT 10SM FEW070 FEW250 30/19 A2964 RMK AO2 PK WND 20032/2315 SLP027 CB DSNT NW MOV E TCU DSNT W T03000194 10328 20300 56018
KDSM 202254Z 19022G33KT 10SM FEW050 FEW170 FEW250 32/19 A2964 RMK AO2 PK WND 19034/2206 SLP027 T03170194
KDSM 202154Z 20019G33KT 10SM FEW055 FEW200 33/18 A2967 RMK AO2 PK WND 21036/2100 SLP036 T03280183
KDSM 202054Z 20016G29KT 10SM FEW055 FEW200 33/19 A2969 RMK AO2 PK WND 20035/2022 SLP045 T03280194 56020
KDSM 201954Z 19023G31KT 10SM FEW050 FEW200 32/21 A2971 RMK AO2 PK WND 20032/1941 SLP050 T03220206
KDSM 201854Z 19020G28KT 10SM FEW045 32/21 A2973 RMK AO2 PK WND 20030/1755 SLP058 T03220211
KDSM 201754Z 19020G28KT 10SM FEW045 FEW070 FEW250 32/21 A2975 RMK AO2 PK WND 21028/1732 SLP065 T03170206 10317 20206 58023
KDSM 201654Z 20013KT 10SM FEW070 FEW250 31/21 A2978 RMK AO2 SLP074 T03060211
KDSM 201554Z 21012KT 10SM FEW070 FEW250 29/21 A2980 RMK AO2 SLP084 T02890211
KDSM 201454Z 21011G19KT 10SM FEW070 FEW250 27/22 A2982 RMK AO2 SLP090 T02720217 57005
KDSM 201354Z 16007KT 9SM FEW070 SCT250 23/21 A2983 RMK AO2 SLP093 T02330211
KDSM 201254Z 11005KT 10SM FEW060 FEW100 BKN250 22/21 A2983 RMK AO2 SLP095 T02170206
KDSM 201154Z 09005KT 10SM FEW070 FEW120 SCT250 21/20 A2984 RMK AO2 SLP097 T02060200 10239 20206 58007
KDSM 201054Z 08007KT 10SM FEW070 SCT120 21/20 A2985 RMK AO2 SLP100 T02060200
KDSM 200954Z 07008KT 10SM SCT065 SCT080 BKN120 BKN250 21/20 A2985 RMK AO2 SLP102 T02110200
KDSM 200854Z 06010KT 10SM SCT060 SCT075 BKN120 BKN250 22/21 A2986 RMK AO2 SLP104 T02170206 56005
KDSM 200754Z 06008KT 10SM SCT075 SCT090 BKN120 BKN250 22/21 A2986 RMK AO2 SLP105 T02220211
KDSM 200654Z 06006KT 10SM SCT065 SCT090 BKN110 BKN250 23/22 A2986 RMK AO2 SLP105 T02330217
KDSM 200554Z 12005KT 10SM FEW060 SCT090 BKN250 23/22 A2988 RMK AO2 SLP110 T02280217 10261 20222 402720183 51006
KDSM 200454Z 11006KT 10SM FEW090 BKN250 22/21 A2987 RMK AO2 SLP109 T02220211
KDSM 200354Z 10005KT 10SM BKN250 23/21 A2987 RMK AO2 SLP107 T02280211